Stock Island, Florida
Current Conditions -  °F | °C
As of 11:53 PM on Saturday 25 Oct 2014 (Local Time) from KEYW Reporting Station
Haze Haze  
Wind Chill: 76°   Ceiling: Unl
Heat Index: 76°   Visibility: 0mi
Dew Point: 67°   Wind: 8mph
Humidity: 74%   Direction: 20°NNE
Pressure: 29.95"   Gusts: NA
Location:  24.5554°N, 81.8052°W
Report Text: KEYW 260353Z AUTO 02007KT M1/4SM HZ CLR 24/19 A2995 RMK AO2 SLP141 T02440194
Loading
Personal Weather Stations






























Interactive Weather Map
Tropical Storm Tracking
New forecast layout! Learn more

10-Day Weather Forecast

Advertisements
Track Severe Weather on mobile